createdAt,value
2023-05-19T00:01:20.537Z,6.41
2023-05-19T00:03:57.867Z,6.36
2023-05-19T00:06:33.335Z,6.31
2023-05-19T00:09:03.012Z,6.38
2023-05-19T00:11:30.303Z,6.18
2023-05-19T00:13:59.634Z,6.35
2023-05-19T00:16:28.293Z,6.27
2023-05-19T00:18:55.432Z,6.26
2023-05-19T00:21:22.199Z,6.19
2023-05-19T00:23:49.401Z,6.14
2023-05-19T00:26:16.089Z,5.99
2023-05-19T00:28:42.814Z,6.13
2023-05-19T00:31:09.892Z,6.14
2023-05-19T00:33:36.730Z,6.14
2023-05-19T00:36:04.185Z,6.17
2023-05-19T00:38:31.411Z,6.10
2023-05-19T00:40:58.788Z,6.09
2023-05-19T00:43:26.213Z,6.11
2023-05-19T00:45:53.242Z,6.09
2023-05-19T00:48:20.059Z,6.02
2023-05-19T00:50:47.035Z,5.91
2023-05-19T00:53:15.085Z,5.97
2023-05-19T00:55:42.917Z,6.07
2023-05-19T00:58:11.498Z,6.08
2023-05-19T01:00:39.900Z,6.07
2023-05-19T01:03:11.625Z,5.98
2023-05-19T01:05:42.815Z,6.07
2023-05-19T01:08:09.575Z,6.05
2023-05-19T01:10:36.987Z,6.01
2023-05-19T01:13:05.489Z,6.06
2023-05-19T01:15:51.887Z,6.08
2023-05-19T01:18:26.270Z,6.00
2023-05-19T01:21:12.751Z,5.95
2023-05-19T01:23:57.408Z,6.20
2023-05-19T01:27:09.450Z,6.08
2023-05-19T01:29:47.398Z,6.14
2023-05-19T01:32:19.692Z,6.12
2023-05-19T01:34:49.246Z,6.10
2023-05-19T01:37:17.833Z,6.04
2023-05-19T01:39:45.968Z,6.01
2023-05-19T01:42:14.394Z,6.03
2023-05-19T01:44:42.000Z,5.97
2023-05-19T01:47:09.814Z,5.79
2023-05-19T01:49:36.622Z,5.93
2023-05-19T01:52:03.311Z,5.87
2023-05-19T01:54:30.164Z,5.98
2023-05-19T01:57:02.644Z,6.06
2023-05-19T01:59:50.952Z,6.04
2023-05-19T02:02:39.503Z,6.00
2023-05-19T02:05:43.871Z,6.00
2023-05-19T02:08:31.382Z,5.98
2023-05-19T02:11:08.025Z,5.97
2023-05-19T02:13:38.821Z,6.04
2023-05-19T02:16:06.442Z,5.98
2023-05-19T02:18:34.089Z,5.98
2023-05-19T02:21:01.427Z,5.96
2023-05-19T02:23:28.177Z,5.99
2023-05-19T02:25:55.001Z,6.01
2023-05-19T02:28:21.737Z,6.05
2023-05-19T02:30:48.579Z,6.04
2023-05-19T02:33:15.421Z,6.07
2023-05-19T02:35:42.160Z,6.08
2023-05-19T02:38:08.975Z,6.11
2023-05-19T02:40:35.753Z,6.01
2023-05-19T02:43:02.589Z,6.05
2023-05-19T02:45:29.793Z,6.11
2023-05-19T02:47:57.571Z,6.11
2023-05-19T02:50:24.315Z,6.10
2023-05-19T02:52:52.825Z,6.05
2023-05-19T02:55:19.830Z,5.98
2023-05-19T02:57:46.702Z,6.05
2023-05-19T03:00:14.231Z,5.91
2023-05-19T03:02:41.616Z,5.94
2023-05-19T03:05:08.981Z,5.94
2023-05-19T03:07:39.221Z,5.88
2023-05-19T03:10:09.873Z,5.83
2023-05-19T03:12:36.588Z,5.90
2023-05-19T03:15:03.521Z,5.95
2023-05-19T03:17:34.239Z,5.88
2023-05-19T03:20:01.698Z,6.05
2023-05-19T03:22:28.446Z,5.94
2023-05-19T03:24:55.302Z,5.99
2023-05-19T03:27:22.118Z,6.02
2023-05-19T03:29:48.788Z,6.04
2023-05-19T03:32:16.265Z,5.95
2023-05-19T03:34:43.054Z,5.96
2023-05-19T03:37:11.220Z,5.98
2023-05-19T03:39:38.011Z,5.96
2023-05-19T03:42:04.813Z,6.11
2023-05-19T03:44:31.623Z,6.02
2023-05-19T03:46:58.493Z,6.07
2023-05-19T03:49:25.216Z,6.05
2023-05-19T03:51:51.948Z,6.05
2023-05-19T03:54:19.272Z,6.12
2023-05-19T03:56:46.205Z,6.18
2023-05-19T03:59:16.346Z,6.14
2023-05-19T04:01:44.155Z,6.29
2023-05-19T04:04:11.185Z,6.24
2023-05-19T04:06:38.020Z,6.30
2023-05-19T04:09:14.717Z,6.33
2023-05-19T04:11:42.571Z,6.19
2023-05-19T04:14:09.482Z,6.30
2023-05-19T04:16:36.418Z,6.27
2023-05-19T04:19:03.244Z,6.26
2023-05-19T04:21:30.158Z,6.33
2023-05-19T04:23:59.326Z,6.32
2023-05-19T04:26:26.996Z,6.33
2023-05-19T04:28:54.269Z,6.31
2023-05-19T04:31:21.958Z,6.35
2023-05-19T04:33:49.904Z,6.37
2023-05-19T04:36:20.905Z,6.38
2023-05-19T04:38:48.409Z,6.49
2023-05-19T04:41:16.664Z,6.53
2023-05-19T04:43:44.918Z,6.56
2023-05-19T04:46:14.220Z,6.45
2023-05-19T04:48:41.616Z,6.43
2023-05-19T04:51:08.457Z,6.29
2023-05-19T04:53:35.400Z,6.56
2023-05-19T04:56:02.385Z,6.61
2023-05-19T04:58:29.403Z,6.64
2023-05-19T05:00:56.190Z,6.60
2023-05-19T05:03:26.737Z,6.55
2023-05-19T05:05:53.588Z,6.54
2023-05-19T05:08:23.495Z,6.67
2023-05-19T05:10:52.690Z,6.71
2023-05-19T05:13:22.498Z,6.76
2023-05-19T05:15:49.580Z,6.83
2023-05-19T05:18:16.649Z,6.80
2023-05-19T05:20:46.429Z,6.77
2023-05-19T05:23:14.847Z,6.79
2023-05-19T05:25:42.349Z,6.91
2023-05-19T05:28:09.306Z,6.85
2023-05-19T05:30:36.221Z,7.04
2023-05-19T05:33:03.374Z,7.00
2023-05-19T05:35:30.344Z,7.08
2023-05-19T05:37:57.730Z,7.06
2023-05-19T05:40:24.508Z,7.12
2023-05-19T05:42:51.378Z,7.09
2023-05-19T05:45:18.170Z,7.15
2023-05-19T05:47:45.127Z,7.26
2023-05-19T05:50:13.314Z,7.18
2023-05-19T05:52:42.507Z,7.38
2023-05-19T05:55:09.944Z,7.38
2023-05-19T05:57:36.698Z,7.38
2023-05-19T06:00:07.587Z,7.31
2023-05-19T06:02:34.485Z,7.41
2023-05-19T06:05:01.205Z,7.50
2023-05-19T06:07:28.058Z,7.56
2023-05-19T06:09:54.857Z,7.55
2023-05-19T06:12:23.159Z,7.71
2023-05-19T06:14:49.895Z,7.77
2023-05-19T06:17:16.652Z,7.80
2023-05-19T06:19:43.539Z,7.83
2023-05-19T06:22:10.361Z,7.95
2023-05-19T06:24:39.341Z,8.02
2023-05-19T06:27:06.444Z,8.01
2023-05-19T06:29:33.259Z,8.05
2023-05-19T06:32:00.026Z,7.90
2023-05-19T06:34:27.065Z,8.01
2023-05-19T06:36:53.804Z,8.06
2023-05-19T06:39:20.581Z,8.20
2023-05-19T06:41:47.472Z,8.36
2023-05-19T06:44:14.270Z,8.37
2023-05-19T06:46:41.174Z,8.22
2023-05-19T06:49:07.990Z,8.30
2023-05-19T06:51:35.498Z,8.46
2023-05-19T06:54:02.656Z,8.41
2023-05-19T06:56:29.561Z,8.46
2023-05-19T06:58:57.309Z,8.42
2023-05-19T07:01:24.257Z,8.58
2023-05-19T07:03:51.307Z,8.53
2023-05-19T07:06:18.011Z,8.54
2023-05-19T07:08:44.641Z,8.58
2023-05-19T07:11:12.723Z,8.72
2023-05-19T07:13:39.493Z,8.76
2023-05-19T07:16:06.490Z,8.65
2023-05-19T07:18:33.622Z,8.67
2023-05-19T07:21:00.390Z,8.80
2023-05-19T07:23:27.130Z,8.95
2023-05-19T07:25:57.753Z,9.11
2023-05-19T07:28:24.548Z,9.15
2023-05-19T07:30:52.115Z,9.22
2023-05-19T07:33:19.001Z,9.27
2023-05-19T07:35:46.451Z,9.26
2023-05-19T07:38:13.344Z,9.34
2023-05-19T07:40:40.156Z,9.06
2023-05-19T07:43:06.930Z,9.31
2023-05-19T07:45:34.781Z,9.32
2023-05-19T07:48:01.603Z,9.12
2023-05-19T07:50:28.494Z,9.46
2023-05-19T07:52:55.502Z,9.48
2023-05-19T07:55:23.505Z,9.43
2023-05-19T07:57:51.099Z,9.49
2023-05-19T08:00:18.314Z,9.33
2023-05-19T08:02:48.611Z,9.50
2023-05-19T08:05:15.559Z,9.60
2023-05-19T08:07:42.277Z,9.61
2023-05-19T08:10:09.318Z,9.67
2023-05-19T08:12:39.165Z,9.68
2023-05-19T08:15:06.492Z,9.72
2023-05-19T08:17:33.347Z,9.52
2023-05-19T08:20:04.603Z,9.42
2023-05-19T08:22:32.313Z,9.50
2023-05-19T08:25:06.397Z,9.45
2023-05-19T08:27:33.589Z,9.11
2023-05-19T08:30:08.407Z,9.63
2023-05-19T08:32:35.279Z,9.52
2023-05-19T08:35:03.109Z,9.35
2023-05-19T08:37:31.989Z,9.50
2023-05-19T08:40:01.080Z,9.59
2023-05-19T08:42:27.915Z,9.57
2023-05-19T08:44:54.675Z,9.57
2023-05-19T08:47:23.052Z,9.49
2023-05-19T08:49:57.944Z,9.65
2023-05-19T08:52:52.562Z,9.44
2023-05-19T08:55:34.521Z,9.70
2023-05-19T08:58:03.625Z,9.69
2023-05-19T09:00:30.794Z,9.50
2023-05-19T09:03:05.999Z,9.48
2023-05-19T09:05:40.622Z,9.55
2023-05-19T09:08:07.949Z,9.39
2023-05-19T09:10:34.698Z,9.51
2023-05-19T09:13:01.643Z,9.26
2023-05-19T09:15:28.729Z,9.38
2023-05-19T09:18:09.178Z,9.39
2023-05-19T09:20:46.367Z,9.41
2023-05-19T09:23:16.551Z,9.38
2023-05-19T09:25:48.750Z,9.55
2023-05-19T09:28:38.081Z,9.56
2023-05-19T09:31:12.065Z,9.40
2023-05-19T09:33:45.581Z,9.71
2023-05-19T09:36:13.776Z,9.63
2023-05-19T09:38:41.684Z,9.58
2023-05-19T09:41:09.612Z,9.51
2023-05-19T09:43:36.736Z,9.47
2023-05-19T09:46:04.418Z,9.71
2023-05-19T09:48:31.178Z,9.64
2023-05-19T09:51:03.086Z,9.70
2023-05-19T09:53:31.216Z,9.75
2023-05-19T09:55:58.708Z,9.57
2023-05-19T09:58:26.676Z,9.46
2023-05-19T10:00:54.958Z,9.52
2023-05-19T10:03:25.842Z,9.44
2023-05-19T10:05:53.718Z,9.28
2023-05-19T10:08:21.741Z,9.56
2023-05-19T10:10:48.684Z,9.51
2023-05-19T10:13:16.796Z,9.80
2023-05-19T10:15:57.362Z,9.84
2023-05-19T10:18:26.193Z,9.82
2023-05-19T10:20:55.186Z,9.77
2023-05-19T10:23:22.614Z,9.81
2023-05-19T10:25:53.821Z,9.79
2023-05-19T10:28:26.873Z,9.74
2023-05-19T10:30:56.714Z,9.78
2023-05-19T10:33:40.769Z,9.95
2023-05-19T10:36:21.470Z,10.05
2023-05-19T10:39:04.956Z,9.97
2023-05-19T10:41:51.184Z,10.23
2023-05-19T10:44:26.814Z,10.13
2023-05-19T10:46:56.012Z,9.91
2023-05-19T10:49:24.165Z,10.01
2023-05-19T10:51:55.200Z,10.13
2023-05-19T10:54:46.178Z,10.42
2023-05-19T10:57:17.706Z,10.33
2023-05-19T10:59:49.741Z,10.35
2023-05-19T11:02:42.851Z,10.40
2023-05-19T11:05:14.567Z,10.45
2023-05-19T11:07:43.904Z,10.47
2023-05-19T11:10:11.228Z,10.46
2023-05-19T11:12:43.340Z,10.48
2023-05-19T11:15:15.581Z,10.41
2023-05-19T11:17:45.399Z,10.26
2023-05-19T11:20:26.866Z,10.18
2023-05-19T11:23:18.201Z,10.32
2023-05-19T11:25:51.583Z,10.31
2023-05-19T11:28:20.227Z,10.40
2023-05-19T11:30:52.451Z,10.41
2023-05-19T11:33:29.304Z,10.33
2023-05-19T11:36:00.239Z,10.43
2023-05-19T11:38:28.719Z,10.58
2023-05-19T11:40:56.488Z,10.71
2023-05-19T11:43:26.601Z,10.42
2023-05-19T11:45:57.126Z,10.74
2023-05-19T11:48:24.949Z,10.81
2023-05-19T11:50:52.744Z,10.77
2023-05-19T11:53:22.911Z,10.79
2023-05-19T11:55:50.165Z,10.59
2023-05-19T11:58:17.646Z,10.27
2023-05-19T12:00:47.911Z,10.57
2023-05-19T12:03:15.185Z,10.68
2023-05-19T12:05:48.972Z,10.92
2023-05-19T12:08:19.373Z,10.75
2023-05-19T12:10:50.808Z,10.93
2023-05-19T12:13:17.661Z,10.91
2023-05-19T12:15:44.482Z,10.91
2023-05-19T12:18:11.498Z,11.06
2023-05-19T12:20:39.448Z,11.22
2023-05-19T12:23:06.696Z,11.24
2023-05-19T12:25:34.523Z,11.23
2023-05-19T12:28:05.372Z,11.17
2023-05-19T12:30:33.959Z,11.15
2023-05-19T12:33:02.394Z,11.02
2023-05-19T12:35:32.266Z,11.11
2023-05-19T12:38:03.688Z,10.99
2023-05-19T12:40:30.800Z,11.09
2023-05-19T12:42:59.408Z,11.06
2023-05-19T12:45:40.243Z,10.93
2023-05-19T12:48:12.127Z,10.96
2023-05-19T12:50:39.162Z,10.83
2023-05-19T12:53:09.584Z,11.10
2023-05-19T12:55:44.205Z,11.18
2023-05-19T12:58:16.376Z,11.10
2023-05-19T13:00:45.493Z,11.18
2023-05-19T13:03:17.364Z,11.12
2023-05-19T13:05:47.235Z,11.07
2023-05-19T13:08:18.533Z,11.08
2023-05-19T13:10:46.885Z,11.07
2023-05-19T13:13:13.699Z,10.95
2023-05-19T13:15:45.595Z,11.02
2023-05-19T13:18:13.665Z,11.05
2023-05-19T13:20:42.514Z,11.09
2023-05-19T13:23:13.412Z,11.14
2023-05-19T13:25:41.398Z,11.14
2023-05-19T13:28:08.750Z,11.05
2023-05-19T13:30:37.096Z,11.05
2023-05-19T13:33:04.252Z,11.01
2023-05-19T13:35:37.191Z,11.01
2023-05-19T13:38:06.179Z,11.04
2023-05-19T13:40:36.854Z,11.05
2023-05-19T13:43:04.442Z,11.07
2023-05-19T13:45:31.664Z,11.09
2023-05-19T13:47:58.624Z,10.94
2023-05-19T13:50:25.694Z,11.02
2023-05-19T13:52:52.475Z,11.01
2023-05-19T13:55:19.527Z,11.09
2023-05-19T13:57:46.262Z,11.15
2023-05-19T14:00:13.419Z,11.08
2023-05-19T14:02:40.708Z,11.00
2023-05-19T14:05:08.283Z,10.99
2023-05-19T14:07:35.693Z,11.06
2023-05-19T14:10:04.327Z,10.94
2023-05-19T14:12:39.761Z,10.85
2023-05-19T14:15:14.636Z,10.84
2023-05-19T14:17:41.705Z,10.74
2023-05-19T14:20:10.355Z,10.75
2023-05-19T14:22:37.249Z,10.75
2023-05-19T14:25:14.690Z,10.59
2023-05-19T14:27:42.800Z,10.60
2023-05-19T14:30:10.021Z,10.50
2023-05-19T14:32:36.772Z,10.50
2023-05-19T14:35:03.932Z,10.38
2023-05-19T14:37:32.254Z,10.22
2023-05-19T14:39:59.489Z,10.43
2023-05-19T14:42:26.248Z,10.39
2023-05-19T14:44:53.061Z,10.38
2023-05-19T14:47:22.876Z,10.43
2023-05-19T14:49:49.726Z,10.33
2023-05-19T14:52:16.517Z,10.41
2023-05-19T14:54:43.283Z,10.47
2023-05-19T14:57:14.500Z,10.44
2023-05-19T14:59:41.325Z,10.31
2023-05-19T15:02:08.133Z,10.45
2023-05-19T15:04:34.892Z,10.45
2023-05-19T15:09:31.325Z,10.42
2023-05-19T15:11:58.277Z,10.42
2023-05-19T15:14:25.426Z,10.37
2023-05-19T15:16:53.163Z,10.43
2023-05-19T15:19:19.978Z,10.42
2023-05-19T15:21:46.910Z,10.46
2023-05-19T15:24:13.607Z,10.48
2023-05-19T15:26:40.402Z,10.44
2023-05-19T15:29:07.236Z,10.37
2023-05-19T15:31:35.871Z,10.31
2023-05-19T15:34:04.138Z,10.29
2023-05-19T15:36:31.796Z,10.32
2023-05-19T15:38:58.583Z,10.28
2023-05-19T15:41:25.802Z,10.24
2023-05-19T15:43:53.820Z,10.18
2023-05-19T15:46:20.751Z,10.12
2023-05-19T15:48:47.586Z,10.32
2023-05-19T15:51:14.504Z,10.39
2023-05-19T15:53:41.220Z,10.35
2023-05-19T15:56:08.059Z,10.34
2023-05-19T15:58:34.831Z,10.25
2023-05-19T16:01:01.746Z,10.13
2023-05-19T16:03:30.192Z,10.19
2023-05-19T16:05:57.217Z,10.16
2023-05-19T16:08:24.146Z,10.19
2023-05-19T16:10:51.084Z,10.14
2023-05-19T16:13:17.863Z,10.10
2023-05-19T16:15:44.634Z,10.07
2023-05-19T16:18:11.969Z,10.05
2023-05-19T16:20:39.991Z,9.96
2023-05-19T16:23:07.243Z,10.00
2023-05-19T16:25:34.924Z,9.97
2023-05-19T16:28:02.883Z,9.92
2023-05-19T16:30:30.195Z,9.93
2023-05-19T16:32:57.866Z,9.93
2023-05-19T16:35:25.436Z,9.91
2023-05-19T16:37:57.214Z,9.92
2023-05-19T16:40:25.085Z,9.81
2023-05-19T16:42:55.809Z,9.85
2023-05-19T16:45:23.713Z,9.56
2023-05-19T16:47:51.251Z,9.59
2023-05-19T16:50:19.085Z,9.88
2023-05-19T16:52:47.346Z,9.84
2023-05-19T16:55:20.294Z,9.87
2023-05-19T16:57:50.568Z,9.87
2023-05-19T17:00:18.569Z,9.66
2023-05-19T17:02:46.959Z,9.87
2023-05-19T17:05:14.542Z,9.85
2023-05-19T17:07:41.827Z,9.80
2023-05-19T17:10:09.968Z,9.77
2023-05-19T17:12:37.398Z,9.74
2023-05-19T17:15:05.402Z,9.68
2023-05-19T17:17:33.202Z,9.63
2023-05-19T17:20:00.759Z,9.68
2023-05-19T17:22:30.113Z,9.57
2023-05-19T17:24:58.384Z,9.76
2023-05-19T17:27:26.049Z,9.67
2023-05-19T17:29:53.429Z,9.66
2023-05-19T17:32:26.194Z,9.61
2023-05-19T17:34:54.120Z,9.51
2023-05-19T17:37:26.007Z,9.67
2023-05-19T17:39:53.481Z,9.68
2023-05-19T17:42:24.204Z,9.54
2023-05-19T17:44:53.701Z,9.58
2023-05-19T17:47:21.694Z,9.53
2023-05-19T17:49:52.152Z,9.48
2023-05-19T17:52:22.934Z,9.47
2023-05-19T17:54:51.496Z,9.41
2023-05-19T17:57:19.669Z,9.42
2023-05-19T17:59:47.336Z,9.38
2023-05-19T18:02:16.589Z,9.28
2023-05-19T18:04:44.323Z,9.35
2023-05-19T18:07:14.912Z,9.28
2023-05-19T18:09:51.399Z,9.32
2023-05-19T18:12:19.859Z,9.30
2023-05-19T18:14:47.792Z,9.28
2023-05-19T18:17:16.063Z,9.27
2023-05-19T18:19:43.301Z,9.30
2023-05-19T18:22:15.322Z,9.26
2023-05-19T18:24:52.614Z,9.22
2023-05-19T18:27:20.066Z,9.19
2023-05-19T18:29:47.204Z,9.21
2023-05-19T18:32:17.585Z,9.19
2023-05-19T18:34:44.924Z,8.74
2023-05-19T18:37:12.314Z,9.19
2023-05-19T18:39:39.822Z,9.22
2023-05-19T18:42:07.405Z,9.18
2023-05-19T18:44:35.700Z,9.17
2023-05-19T18:47:03.680Z,9.15
2023-05-19T18:49:31.048Z,9.13
2023-05-19T18:51:57.958Z,9.15
2023-05-19T18:54:26.506Z,9.18
2023-05-19T18:56:54.491Z,9.20
2023-05-19T18:59:22.032Z,9.17
2023-05-19T19:01:49.776Z,9.14
2023-05-19T19:04:17.149Z,9.13
2023-05-19T19:06:44.784Z,9.18
2023-05-19T19:09:12.543Z,9.01
2023-05-19T19:11:45.406Z,9.19
2023-05-19T19:14:13.688Z,9.13
2023-05-19T19:16:41.234Z,8.98
2023-05-19T19:19:08.888Z,9.02
2023-05-19T19:21:36.296Z,9.07
2023-05-19T19:24:03.717Z,9.04
2023-05-19T19:26:31.001Z,9.05
2023-05-19T19:28:58.787Z,9.06
2023-05-19T19:31:31.884Z,9.11
2023-05-19T19:34:03.431Z,9.09
2023-05-19T19:36:30.189Z,9.09
2023-05-19T19:38:58.632Z,9.07
2023-05-19T19:41:27.325Z,9.02
2023-05-19T19:43:54.716Z,9.04
2023-05-19T19:46:22.427Z,9.03
2023-05-19T19:48:50.171Z,9.00
2023-05-19T19:51:18.602Z,9.05
2023-05-19T19:53:46.102Z,8.88
2023-05-19T19:56:13.933Z,9.02
2023-05-19T19:58:41.478Z,8.86
2023-05-19T20:01:08.974Z,9.03
2023-05-19T20:03:36.652Z,8.99
2023-05-19T20:06:04.286Z,9.01
2023-05-19T20:08:31.679Z,9.00
2023-05-19T20:10:59.625Z,8.94
2023-05-19T20:13:27.239Z,8.99
2023-05-19T20:15:54.643Z,8.98
2023-05-19T20:18:22.555Z,8.97
2023-05-19T20:20:53.004Z,8.93
2023-05-19T20:23:20.498Z,8.97
2023-05-19T20:25:58.437Z,8.89
2023-05-19T20:28:35.284Z,8.80
2023-05-19T20:31:02.057Z,8.92
2023-05-19T20:33:28.951Z,8.89
2023-05-19T20:35:56.071Z,8.83
2023-05-19T20:38:22.856Z,8.86
2023-05-19T20:40:49.576Z,8.80
2023-05-19T20:43:16.302Z,8.77
2023-05-19T20:45:44.373Z,8.83
2023-05-19T20:48:11.859Z,8.83
2023-05-19T20:50:39.450Z,8.86
2023-05-19T20:53:07.603Z,8.74
2023-05-19T20:55:36.350Z,8.80
2023-05-19T20:58:03.147Z,8.75
2023-05-19T21:00:30.745Z,8.83
2023-05-19T21:02:57.736Z,8.80
2023-05-19T21:05:24.829Z,8.79
2023-05-19T21:07:51.781Z,8.74
2023-05-19T21:10:18.584Z,8.80
2023-05-19T21:12:45.298Z,8.70
2023-05-19T21:15:12.302Z,8.72
2023-05-19T21:17:39.150Z,8.61
2023-05-19T21:20:06.526Z,8.62
2023-05-19T21:22:33.253Z,8.55
2023-05-19T21:25:00.009Z,8.53
2023-05-19T21:27:26.726Z,8.56
2023-05-19T21:29:54.334Z,8.58
2023-05-19T21:32:21.792Z,8.52
2023-05-19T21:34:48.775Z,8.47
2023-05-19T21:37:17.419Z,8.44
2023-05-19T21:39:44.719Z,8.46
2023-05-19T21:42:11.522Z,8.46
2023-05-19T21:44:38.287Z,8.47
2023-05-19T21:47:05.159Z,8.48
2023-05-19T21:49:33.230Z,8.49
2023-05-19T21:51:59.955Z,8.57
2023-05-19T21:54:26.659Z,8.61
2023-05-19T21:56:53.416Z,8.59
2023-05-19T21:59:23.295Z,8.61
2023-05-19T22:01:50.457Z,8.55
2023-05-19T22:04:18.766Z,8.59
2023-05-19T22:06:45.711Z,8.59
2023-05-19T22:09:13.127Z,8.58
2023-05-19T22:11:40.159Z,8.56
2023-05-19T22:14:07.238Z,8.55
2023-05-19T22:16:35.145Z,8.28
2023-05-19T22:19:01.975Z,8.48
2023-05-19T22:21:28.837Z,8.49
2023-05-19T22:23:55.943Z,8.48
2023-05-19T22:26:22.630Z,8.50
2023-05-19T22:28:50.359Z,8.49
2023-05-19T22:31:17.820Z,8.51
2023-05-19T22:33:45.059Z,8.54
2023-05-19T22:36:11.780Z,8.59
2023-05-19T22:38:38.618Z,8.55
2023-05-19T22:41:05.664Z,8.56
2023-05-19T22:43:32.404Z,8.59
2023-05-19T22:45:59.221Z,8.62
2023-05-19T22:48:26.186Z,8.62
2023-05-19T22:50:53.043Z,8.59
2023-05-19T22:53:19.727Z,8.59
2023-05-19T22:55:46.970Z,8.55
2023-05-19T22:58:13.703Z,8.54
2023-05-19T23:00:40.677Z,8.55
2023-05-19T23:03:07.620Z,8.50
2023-05-19T23:05:34.515Z,8.57
2023-05-19T23:08:01.632Z,8.45
2023-05-19T23:10:28.484Z,8.55
2023-05-19T23:12:55.250Z,8.57
2023-05-19T23:15:22.010Z,8.54
2023-05-19T23:17:48.919Z,8.59
2023-05-19T23:20:15.910Z,8.58
2023-05-19T23:22:42.693Z,8.57
2023-05-19T23:25:09.766Z,8.57
2023-05-19T23:27:36.739Z,8.56
2023-05-19T23:30:04.052Z,8.51
2023-05-19T23:32:31.186Z,8.53
2023-05-19T23:34:57.970Z,8.44
2023-05-19T23:37:24.747Z,8.41
2023-05-19T23:39:51.622Z,8.47
2023-05-19T23:42:18.317Z,8.51
2023-05-19T23:44:45.020Z,8.55
2023-05-19T23:47:11.834Z,8.55
2023-05-19T23:49:38.701Z,8.53
2023-05-19T23:52:05.701Z,8.54
2023-05-19T23:54:32.367Z,8.52
2023-05-19T23:56:59.665Z,8.52
2023-05-19T23:59:26.389Z,8.47
